Spring Creek, South Dakota
Current Conditions -  °F | °C
As of 4:52 AM on Tuesday 21 Oct 2014 (Local Time) from KVTN Reporting Station
Clear Clear  
Wind Chill: 50°   Ceiling: Unl
Heat Index: 50°   Visibility: 10mi
Dew Point: 39°   Wind: 6mph
Humidity: 66%   Direction: 190°S
Pressure: 29.96"   Gusts: NA
Location:  43.1381°N, 100.965°W
Report Text: KVTN 210952Z AUTO 19005KT 10SM CLR 10/04 A2996 RMK AO2 SLP134 T01000039
Loading
Personal Weather Stations






























Interactive Weather Map
Tropical Storm Tracking
New forecast layout! Learn more

10-Day Weather Forecast

Advertisements
Track Severe Weather on mobile